INFORMACIÓN METAR y TAF
METAR FOR LDPL
ADDS - METARS form results

(2045 UTC 26 May 2022)
Data provider http://aviationweather.gov/metar/data/
 
METAR text: LDPL 262030Z VRB02KT CAVOK 20/13 Q1019 NOSIG
Conditions at: LDPL (PULA , HR) observed 2030 UTC 26 May 2022
Temperature: 20.0°C (68°F)
Dewpoint: 13.0°C (55°F) [RH = 64%]
Pressure (altimeter): 30.09 inches Hg (1019.0 mb)
Winds: variable direction winds at 2 MPH (2 knots; 1.0 m/s)
Visibility: 6 or more miles (10+ km)
Ceiling: ceiling and visibility are OK
Clouds: unknown
Weather: no significant weather observed at this time

METAR text: LDPL 262000Z VRB02KT CAVOK 20/13 Q1019 NOSIG
Conditions at: LDPL (PULA , HR) observed 2000 UTC 26 May 2022
Temperature: 20.0°C (68°F)
Dewpoint: 13.0°C (55°F) [RH = 64%]
Pressure (altimeter): 30.09 inches Hg (1019.0 mb)
Winds: variable direction winds at 2 MPH (2 knots; 1.0 m/s)
Visibility: 6 or more miles (10+ km)
Ceiling: ceiling and visibility are OK
Clouds: unknown
Weather: no significant weather observed at this time

Forecast for: LDPL (PULA , HR)
Text: TAF LDPL 261725Z 2618/2718 VRB02KT CAVOK TX29/2714Z TN17/2704Z
Forecast period: 1800 UTC 26 May 2022 to 0900 UTC 27 May 2022
Forecast type: FROM: standard forecast or significant change
Winds: variable direction winds at 2 MPH (2 knots; 1.0 m/s)
Visibility: 6 or more miles (10+ km)
Ceiling: unknown
Clouds: missing
Weather: no significant weather forecast for this period
Text: BECMG 2709/2711 27008KT
Forecast period: 0900 to 1500 UTC 27 May 2022
Forecast type: BECOMING: Conditions expected to become as follows by 1100 UTC 27 May 2022
Winds: from the W (270 degrees) at 9 MPH (8 knots; 4.1 m/s)
Visibility: 6 or more miles (10+ km)
Ceiling: unknown
Clouds: missing
Weather: no significant weather forecast for this period
Text: BECMG 2715/2717 30004KT
Forecast period: 1500 to 1800 UTC 27 May 2022
Forecast type: BECOMING: Conditions expected to become as follows by 1700 UTC 27 May 2022
Winds: from the WNW (300 degrees) at 5 MPH (4 knots; 2.1 m/s)
Visibility: 6 or more miles (10+ km)
Ceiling: unknown
Clouds: missing
Weather: no significant weather forecast for this period

 MAPA DE AEROPUERTO

 INFORMACIÓN DE PISTA
Pista 09 Longitud 9678 ft Ancho 148 ft
Elevación 169 ft Umbral desplazado 0 ft Rumbo de pista 88
Pista 27 Longitud 9678 ft Ancho 148 ft
Elevación 274 ft Umbral desplazado 0 ft Rumbo de pista 268

 FRECUANCIAS DEL AEROPUERTO
Tipo APP Nombre APP Frecuencia 118.4 MHZ
Tipo TWR Nombre TWR Frecuencia 120 MHZ

 RADIO AYUDAS DEL AEROPUERTO
Tipo NDB Nombre Cres Frecuencia 433 KHZ
Tipo NDB Nombre Kavran Frecuencia 265 KHZ
Tipo NDB Nombre Pula Frecuencia 352 KHZ
Tipo VOR-DME Nombre Pula Frecuencia 111250 KHZ



Powered by Virtual Airlines Manager [v2.6.2]